Time;durP1;ratioP1;P1;durP2;ratioP2;P2;SDS_P1;SDS_P2;PMS_P1;PMS_P2;Temp;Humidity;BMP_temperature;BMP_pressure;BME280_temperature;BME280_humidity;BME280_pressure;Samples;Min_cycle;Max_cycle;Signal;HPM_P1;HPM_P2
2021/06/13 00:08:25;;;;;;;9.40;5.78;;;;;;;17.63;61.70;101170.47;21153014;28;20492;-71
2021/06/13 00:18:27;;;;;;;7.70;5.32;;;;;;;17.46;62.17;101180.72;21155841;28;20104;-70
2021/06/13 00:28:29;;;;;;;9.13;5.50;;;;;;;17.18;62.76;101178.91;21156325;28;20554;-71
2021/06/13 00:38:31;;;;;;;9.60;5.70;;;;;;;16.92;64.80;101197.38;21154677;28;20096;-71
2021/06/13 00:48:33;;;;;;;8.98;5.22;;;;;;;16.66;64.28;101198.94;21152669;28;20048;-70
2021/06/13 00:58:35;;;;;;;10.65;5.90;;;;;;;16.55;65.16;101194.88;21153614;28;20047;-70
2021/06/13 01:08:52;;;;;;;8.43;5.22;;;;;;;16.41;66.09;101195.25;21150453;28;20048;-70
2021/06/13 01:19:11;;;;;;;8.60;5.40;;;;;;;16.33;64.50;101202.50;21152835;28;20048;-70
2021/06/13 01:29:26;;;;;;;9.52;5.30;;;;;;;16.13;64.72;101205.66;21151482;28;20073;-70
2021/06/13 01:39:29;;;;;;;;;;;;;;;15.98;63.92;101190.22;21152288;28;20043;-70
2021/06/13 01:49:33;;;;;;;10.13;5.28;;;;;;;15.82;63.85;101195.88;21152193;28;19920;-71
2021/06/13 01:59:40;;;;;;;7.70;4.57;;;;;;;15.67;64.38;101198.03;21164235;27;20043;-71
2021/06/13 02:09:44;;;;;;;10.25;4.53;;;;;;;15.72;64.00;101201.44;21168248;28;20051;-71
2021/06/13 02:19:49;;;;;;;8.70;4.57;;;;;;;15.76;63.82;101205.72;21166283;27;20183;-70
2021/06/13 02:29:50;;;;;;;10.27;5.07;;;;;;;15.66;63.88;101210.34;21165367;28;20523;-70
2021/06/13 02:39:53;;;;;;;8.63;4.75;;;;;;;15.43;66.10;101213.50;21163874;28;20421;-71
2021/06/13 02:49:55;;;;;;;9.38;4.15;;;;;;;15.25;65.93;101211.28;21171370;27;20047;-71
2021/06/13 03:00:00;;;;;;;9.80;4.50;;;;;;;14.98;67.64;101226.78;21162865;28;20100;-70
2021/06/13 03:10:06;;;;;;;9.85;4.53;;;;;;;14.76;68.92;101225.50;21169463;27;20036;-70
2021/06/13 03:20:10;;;;;;;7.72;4.72;;;;;;;14.65;68.24;101246.75;21161200;28;20052;-70
2021/06/13 03:30:12;;;;;;;12.25;5.20;;;;;;;14.66;68.20;101250.25;21160408;28;20112;-70
2021/06/13 03:40:16;;;;;;;10.85;4.70;;;;;;;14.56;68.85;101265.38;21159767;28;20044;-70
2021/06/13 03:50:19;;;;;;;11.48;4.53;;;;;;;14.38;70.32;101271.84;21183555;27;20051;-70
2021/06/13 04:00:24;;;;;;;9.93;4.63;;;;;;;14.28;69.85;101286.94;21242858;27;20072;-70
2021/06/13 04:10:26;;;;;;;7.50;4.80;;;;;;;14.80;66.65;101300.97;21161386;27;20108;-70
2021/06/13 04:20:28;;;;;;;12.10;4.93;;;;;;;15.01;65.89;101311.13;21156687;28;20125;-70
2021/06/13 04:30:31;;;;;;;11.20;4.38;;;;;;;15.39;65.12;101322.66;21155109;28;20040;-70
2021/06/13 04:40:32;;;;;;;11.27;4.68;;;;;;;17.39;57.33;101324.75;21154788;28;20050;-70
2021/06/13 04:50:35;;;;;;;8.65;4.30;;;;;;;16.75;59.09;101337.13;21153872;28;20196;-71
2021/06/13 05:00:36;;;;;;;9.65;4.60;;;;;;;16.41;59.18;101344.13;21153590;28;20044;-70
2021/06/13 05:10:38;;;;;;;7.32;4.00;;;;;;;15.94;62.04;101350.53;21162730;27;20499;-70
2021/06/13 05:20:41;;;;;;;9.02;4.35;;;;;;;16.10;61.39;101353.72;21188994;27;20590;-70
2021/06/13 05:30:43;;;;;;;15.82;5.15;;;;;;;16.08;60.67;101372.22;21154450;28;20047;-71
2021/06/13 05:40:46;;;;;;;12.23;4.53;;;;;;;16.09;61.41;101381.88;21168340;28;20055;-70
2021/06/13 05:50:47;;;;;;;15.45;5.35;;;;;;;15.99;61.19;101403.25;21213512;27;20058;-70
2021/06/13 06:00:49;;;;;;;10.07;4.68;;;;;;;15.82;62.12;101399.22;21252663;27;20047;-70
2021/06/13 06:10:51;;;;;;;11.82;4.68;;;;;;;16.00;60.81;101402.34;21246990;27;20058;-69
2021/06/13 06:20:53;;;;;;;13.38;5.32;;;;;;;16.30;60.76;101416.66;21165890;28;20462;-70
2021/06/13 06:30:54;;;;;;;13.68;6.13;;;;;;;16.70;58.40;101403.34;21163787;28;20063;-70
2021/06/13 06:40:58;;;;;;;12.90;6.35;;;;;;;16.51;59.23;101428.50;21164029;28;20074;-70
2021/06/13 06:51:00;;;;;;;12.48;6.60;;;;;;;16.80;58.75;101433.97;21163211;28;20044;-69
2021/06/13 07:01:02;;;;;;;12.20;5.97;;;;;;;17.00;58.18;101441.41;21162482;28;20088;-70
2021/06/13 07:11:04;;;;;;;11.82;5.22;;;;;;;17.46;56.51;101444.63;21151840;28;20483;-70
2021/06/13 07:21:06;;;;;;;16.45;5.63;;;;;;;17.31;56.71;101459.13;21161710;28;20040;-70
2021/06/13 07:31:08;;;;;;;11.30;5.80;;;;;;;17.61;55.41;101455.63;21161443;28;20047;-70
2021/06/13 07:41:10;;;;;;;16.15;4.70;;;;;;;17.72;54.50;101457.13;21153811;28;20127;-70
2021/06/13 07:51:13;;;;;;;10.48;4.80;;;;;;;17.97;53.85;101476.75;21158023;28;20486;-71
2021/06/13 08:01:15;;;;;;;10.23;4.50;;;;;;;18.20;52.71;101465.44;21157354;28;20055;-70
2021/06/13 08:11:17;;;;;;;9.52;4.07;;;;;;;18.16;52.05;101446.13;21157567;28;20096;-70
2021/06/13 08:21:19;;;;;;;9.02;4.18;;;;;;;18.66;50.63;101435.69;21154095;28;20044;-71
2021/06/13 08:31:22;;;;;;;10.02;4.55;;;;;;;18.54;50.55;101438.75;21156231;28;20048;-70
2021/06/13 08:41:24;;;;;;;11.63;4.40;;;;;;;18.88;49.57;101443.84;21156036;28;20451;-71
2021/06/13 08:51:26;;;;;;;9.77;4.25;;;;;;;19.25;49.10;101441.72;21156297;28;20394;-71
2021/06/13 09:01:28;;;;;;;8.65;3.72;;;;;;;19.53;47.84;101431.84;21171982;27;20059;-70
2021/06/13 09:11:32;;;;;;;7.68;3.90;;;;;;;19.53;47.28;101418.56;21154774;28;20073;-70
2021/06/13 09:21:36;;;;;;;7.97;3.23;;;;;;;20.20;47.38;101431.97;21147954;28;20039;-71
2021/06/13 09:31:38;;;;;;;11.13;4.20;;;;;;;20.05;46.39;101437.88;21154358;28;20048;-71
2021/06/13 09:41:43;;;;;;;9.85;3.50;;;;;;;20.08;43.35;101432.47;21150125;28;20477;-71
2021/06/13 09:51:50;;;;;;;6.70;2.80;;;;;;;20.20;40.21;101436.41;21133518;28;20047;-71
2021/06/13 10:01:59;;;;;;;7.70;2.40;;;;;;;20.41;40.52;101440.00;21151463;28;20052;-70
2021/06/13 10:12:06;;;;;;;5.72;2.45;;;;;;;20.52;40.12;101453.81;21152147;28;20455;-70
2021/06/13 10:22:13;;;;;;;8.15;2.35;;;;;;;20.54;38.52;101435.97;21158623;28;20047;-71
2021/06/13 10:32:21;;;;;;;8.93;2.03;;;;;;;20.89;38.29;101431.88;21164907;28;20039;-69
2021/06/13 10:42:23;;;;;;;5.20;2.22;;;;;;;21.12;37.22;101430.88;21166003;28;20054;-70
2021/06/13 10:52:27;;;;;;;5.60;2.03;;;;;;;21.36;36.78;101412.13;21165723;28;20421;-71
2021/06/13 11:02:37;;;;;;;6.00;1.83;;;;;;;22.12;35.48;101400.59;21161144;28;20055;-71
2021/06/13 11:12:43;;;;;;;4.68;1.77;;;;;;;22.11;35.95;101404.22;21164317;28;20505;-71
2021/06/13 11:22:45;;;;;;;5.72;2.10;;;;;;;22.20;37.57;101390.44;21162800;28;20043;-70
2021/06/13 11:32:50;;;;;;;5.43;2.20;;;;;;;22.16;34.41;101398.66;21160087;28;20733;-70
2021/06/13 11:43:11;;;;;;;;;;;;;;;21.59;32.25;101385.28;21161602;28;20078;-70
2021/06/13 11:53:13;;;;;;;5.22;1.75;;;;;;;22.50;30.98;101376.53;21158700;28;20270;-70
2021/06/13 12:03:14;;;;;;;4.22;1.50;;;;;;;22.25;32.03;101363.53;21157720;28;20054;-69
2021/06/13 12:13:16;;;;;;;5.35;1.48;;;;;;;22.64;28.63;101360.69;21161220;28;20452;-70
2021/06/13 12:23:30;;;;;;;5.88;1.58;;;;;;;22.79;30.91;101343.88;21157928;28;20096;-69
2021/06/13 12:33:36;;;;;;;7.13;1.88;;;;;;;22.22;31.11;101340.53;21157446;28;20063;-70
2021/06/13 12:43:43;;;;;;;4.80;1.30;;;;;;;22.88;26.61;101326.50;21156794;28;20124;-69
2021/06/13 12:53:45;;;;;;;5.97;1.85;;;;;;;23.04;26.06;101326.59;21155362;28;20071;-70
2021/06/13 13:03:47;;;;;;;2.83;1.33;;;;;;;22.83;25.90;101322.34;21153834;28;20039;-70
2021/06/13 13:13:53;;;;;;;4.47;1.60;;;;;;;23.14;28.22;101311.81;21154776;28;20052;-69
2021/06/13 13:23:56;;;;;;;5.63;1.80;;;;;;;23.16;29.80;101309.06;21152045;28;20059;-68
2021/06/13 13:34:07;;;;;;;6.07;1.50;;;;;;;23.62;26.01;101296.72;21153693;28;20040;-69
2021/06/13 13:44:11;;;;;;;3.67;1.70;;;;;;;23.51;28.63;101296.44;21152969;28;20109;-69
2021/06/13 13:54:30;;;;;;;5.73;2.13;;;;;;;23.51;30.82;101288.41;21157064;28;20043;-69
2021/06/13 14:04:35;;;;;;;6.45;2.05;;;;;;;23.88;29.61;101289.06;21168303;27;20301;-69
2021/06/13 14:14:37;;;;;;;6.25;1.80;;;;;;;23.59;28.04;101272.81;21195920;27;20066;-69
2021/06/13 14:24:39;;;;;;;5.72;2.42;;;;;;;23.90;26.17;101258.56;21172463;27;20047;-71
2021/06/13 14:34:41;;;;;;;7.03;1.75;;;;;;;24.02;26.19;101267.72;21163640;27;20048;-72
2021/06/13 14:44:42;;;;;;;4.95;2.03;;;;;;;24.02;27.03;101254.34;21166226;28;20044;-72
2021/06/13 14:54:44;;;;;;;4.55;1.60;;;;;;;24.28;25.67;101244.78;21164656;28;20066;-72
2021/06/13 15:04:46;;;;;;;5.70;1.88;;;;;;;24.59;25.55;101246.50;21162335;28;20100;-71
2021/06/13 15:14:50;;;;;;;3.90;1.50;;;;;;;24.37;25.31;101235.38;21162547;27;20108;-71
2021/06/13 15:24:52;;;;;;;3.47;1.17;;;;;;;24.53;23.72;101233.50;21175808;27;20047;-71
2021/06/13 15:34:54;;;;;;;5.05;1.63;;;;;;;24.35;26.65;101231.91;21168686;27;20050;-71
2021/06/13 15:44:56;;;;;;;3.75;1.45;;;;;;;24.57;23.49;101227.84;21232043;27;20048;-71
2021/06/13 15:54:58;;;;;;;5.80;1.70;;;;;;;24.23;24.91;101220.97;21141600;27;20102;-71
2021/06/13 16:05:00;;;;;;;6.45;1.70;;;;;;;24.23;23.35;101215.59;21099073;28;20097;-71
2021/06/13 16:15:03;;;;;;;6.80;1.88;;;;;;;24.37;23.60;101204.09;21073679;28;20052;-71
2021/06/13 16:25:07;;;;;;;3.87;1.50;;;;;;;24.29;24.78;101201.88;21071535;28;20044;-71
2021/06/13 16:35:09;;;;;;;3.90;1.48;;;;;;;24.41;25.27;101194.09;21070298;28;20048;-71
2021/06/13 16:45:11;;;;;;;6.38;1.80;;;;;;;24.03;24.88;101192.72;21072368;28;20043;-71
2021/06/13 16:55:13;;;;;;;6.63;1.90;;;;;;;24.23;24.70;101190.66;21069137;28;20490;-71
2021/06/13 17:05:15;;;;;;;6.25;1.80;;;;;;;24.01;25.08;101186.59;21067594;28;20276;-71
2021/06/13 17:15:18;;;;;;;5.93;2.17;;;;;;;24.17;24.84;101180.34;21067684;28;20490;-71
2021/06/13 17:25:26;;;;;;;7.03;1.92;;;;;;;24.22;26.82;101184.44;21045826;28;20079;-71
2021/06/13 17:35:28;;;;;;;4.25;1.65;;;;;;;23.90;28.40;101193.53;21022267;28;20045;-71
2021/06/13 17:45:29;;;;;;;7.13;2.20;;;;;;;23.93;28.26;101193.34;20984438;28;20460;-71
2021/06/13 17:55:33;;;;;;;5.35;2.00;;;;;;;24.01;29.29;101185.75;20983803;28;20539;-71
2021/06/13 18:05:35;;;;;;;6.93;2.17;;;;;;;23.71;30.61;101189.25;20983192;28;20080;-72
2021/06/13 18:15:37;;;;;;;6.15;2.10;;;;;;;23.46;31.23;101180.88;20981801;28;20363;-72
2021/06/13 18:25:39;;;;;;;6.80;2.13;;;;;;;23.46;31.92;101178.22;20979217;28;20128;-71
2021/06/13 18:35:42;;;;;;;6.03;2.13;;;;;;;23.05;31.13;101165.41;20983050;28;20044;-71
2021/06/13 18:45:48;;;;;;;6.68;2.42;;;;;;;22.77;31.02;101160.69;20994774;28;20490;-71
2021/06/13 18:55:52;;;;;;;7.30;2.20;;;;;;;22.16;32.32;101156.78;20997424;28;20049;-71
2021/06/13 19:05:53;;;;;;;6.03;2.43;;;;;;;21.89;33.12;101159.00;20993103;28;20110;-71
2021/06/13 19:15:55;;;;;;;7.63;2.28;;;;;;;21.48;34.48;101161.09;20993959;28;20373;-71
2021/06/13 19:25:56;;;;;;;5.65;2.05;;;;;;;21.17;35.62;101161.66;20987941;28;20098;-71
2021/06/13 19:35:58;;;;;;;6.75;2.25;;;;;;;20.77;36.94;101170.66;20993023;28;20052;-71
2021/06/13 19:46:00;;;;;;;7.05;2.55;;;;;;;20.15;39.29;101168.03;20992275;28;20044;-71
2021/06/13 19:56:03;;;;;;;6.32;2.47;;;;;;;20.01;35.80;101170.44;20990711;28;20102;-71
2021/06/13 20:06:06;;;;;;;9.95;2.50;;;;;;;19.70;35.62;101177.03;20987329;28;20185;-71
2021/06/13 20:16:08;;;;;;;6.28;2.60;;;;;;;19.62;34.78;101175.63;20989865;28;20064;-71
2021/06/13 20:26:10;;;;;;;8.63;2.90;;;;;;;19.23;37.11;101177.13;20987785;28;20418;-71
2021/06/13 20:36:12;;;;;;;6.78;2.10;;;;;;;19.07;36.54;101186.63;20982666;28;20056;-71
2021/06/13 20:46:14;;;;;;;7.30;2.80;;;;;;;18.94;38.56;101194.16;20984910;28;20056;-71
2021/06/13 20:56:18;;;;;;;5.88;2.28;;;;;;;18.81;39.86;101189.38;20984799;28;20059;-72
2021/06/13 21:06:19;;;;;;;6.78;2.60;;;;;;;17.96;43.25;101188.81;20975354;28;20475;-71
2021/06/13 21:16:21;;;;;;;7.25;2.10;;;;;;;17.74;43.24;101186.03;20987013;28;20391;-70
2021/06/13 21:26:23;;;;;;;7.55;2.38;;;;;;;17.78;43.30;101184.16;20983136;28;20048;-70
2021/06/13 21:36:25;;;;;;;6.57;2.28;;;;;;;17.23;46.20;101175.28;20986268;28;20570;-70
2021/06/13 21:46:26;;;;;;;4.00;2.13;;;;;;;16.84;46.92;101175.56;20986323;28;20087;-70
2021/06/13 21:56:28;;;;;;;6.70;2.50;;;;;;;16.72;47.55;101174.16;20986759;28;20048;-70
2021/06/13 22:06:30;;;;;;;4.90;2.50;;;;;;;16.48;48.25;101177.41;20939136;28;20052;-70
2021/06/13 22:16:32;;;;;;;6.07;2.55;;;;;;;16.23;49.51;101185.16;20989824;28;20048;-70
2021/06/13 22:26:34;;;;;;;6.07;2.30;;;;;;;16.03;50.63;101175.97;20990265;28;20055;-69
2021/06/13 22:36:37;;;;;;;6.45;2.30;;;;;;;15.96;50.60;101171.78;20998232;28;20048;-69
2021/06/13 22:46:38;;;;;;;5.88;2.25;;;;;;;15.60;52.10;101165.59;20997788;28;20164;-70
2021/06/13 22:56:40;;;;;;;8.18;2.67;;;;;;;15.48;52.84;101165.91;20996391;28;20129;-69
2021/06/13 23:06:42;;;;;;;4.93;2.80;;;;;;;15.55;54.06;101160.41;20977740;28;20052;-69
2021/06/13 23:16:44;;;;;;;8.40;2.70;;;;;;;15.25;55.03;101158.50;20995112;28;20121;-69
2021/06/13 23:26:46;;;;;;;7.60;2.70;;;;;;;14.83;56.52;101159.41;20992469;28;20478;-69
2021/06/13 23:36:48;;;;;;;7.15;2.88;;;;;;;14.96;56.44;101148.63;20993828;28;20048;-69
2021/06/13 23:46:50;;;;;;;7.90;3.20;;;;;;;14.89;56.65;101142.59;20991328;28;20052;-69
2021/06/13 23:56:52;;;;;;;5.97;2.65;;;;;;;14.67;57.97;101151.88;20992467;28;20119;-69
